MyMeetScores TOP 100 TOP TEAMS UPCOMING MEETS COMPLETED MEETS LATEST MEETS ADD SCORES SUPPORT SHOP
Personalized OrnamentsShop@
MyMeetScores
 
Maddy Meinen, Kinetic Gymnastics - MyMeetScores.com
Maddy Meinen
Kinetic Gymnastics
Personal Bests
Level Vault Bars Beam Floor AA
XG 8.650 8.750 8.400 8.925 34.025
XP 8.800 8.975 8.400 9.025 33.475
XS 9.400 9.850 9.000 9.350 36.850
Meet Scores
Date Meet Team Session Level Division Vault Bars Beam Floor AA
2023-03-10 2023 Colorado Sky Invitational Kinetic Gymnastics 8L XP Sr B 8.525 14 8.975 3 6.850 13T 9.025 8 33.375 12
2023-02-25 DSG Winter Invitational Kinetic Gymnastics 5 XP Sr 8.550 9T 8.400 6 8.175 8 8.200 12 33.325 9
2023-02-18 Precizion 509%27s Xcel Masquerade Mania Meet Kinetic Gymnastics 3 XP Older 7.975 11 8.425 9 8.400 10 8.675 9 33.475 10T
2023-01-27 2023 California Grand Invitational Kinetic Gymnastics 05H XP Senior B 8.150 13 8.200 12 7.025 14 8.650 13 32.025 13
2023-01-12 Active Athletics Women Colorado Classic 2023 Kinetic Gymnastics 01 XP Senior 8.500 8T 8.225 7 8.125 7 7.800 10 32.650 9
2022-03-25 Active Hippity Hoppity Spring Challenge 2022 Kinetic Gymnastics 08 XP Senior 8.750 14 7.475 14 7.550 14 7.725 16 31.500 15
2022-03-06 2022 Colorado Sky Invitational Kinetic Gymnastics 6A XP Sr B 8.150 13 7.500 13T 7.800 11 7.875 13 31.325 13
2022-02-11 2022 Denver Winterfest Classic Kinetic Gymnastics 04P XP Sr B 7.975 13 7.600 10T 7.725 11 7.150 13 30.450 12
2022-01-29 Precizion 509's Xcel Masquerade Mania Kinetic Gymnastics 1 XP Sr C 8.800 9 7.550 8 7.550 9 8.350 10 32.250 10
2022-01-14 Active Athletics Colorado Classic 2022 Kinetic Gymnastics 04 XP Senior 8.325 9T 7.550 11 6.450 11 8.575 9 30.900 10
2020-02-01 2020 Girls Stiletto Kinetic Gymnastics 2 XG Sr 8.650 2 8.375 3 7.800 5 8.625 3 33.450 3
2020-01-17 Colorado Classic Women's Kinetic Gymnastics 07 XG Junior C 8.000 4 8.700 8T 8.400 4 8.925 5 34.025 5
2020-01-03 Sweetheart Invitational Kinetic Gymnastics 1 XG Older 8.250 6 8.750 7 7.150 10 8.050 11 32.200 11
2019-05-31 2019 Colorado Xcel Silver State Chamionships Kinetic Gymnastics 2 XS Sr B 9.075 4 9.450 5 8.900 10 9.125 2 36.550 1
2019-05-18 Premier Xcel Purple Reign Kinetic Gymnastics 2 XS Sr B 9.400 1T 8.700 7 8.400 14 9.000 8 35.500 10
2019-05-10 2019 CGI XCEL Spring Classic Kinetic Gymnastics 3 XS Junior B 9.300 7T 9.000 18 8.650 19 9.100 14 36.050 17
2019-04-27 Mildred C. Burnham Invitational Kinetic Gymnastics 5 XS Sr C 9.000 7T 8.950 2T 8.450 10 9.350 5 35.750 7
2019-03-23 20 Mile Jubilee Kinetic Gymnastics 4 XS SR 9.150 21 9.850 1 8.900 30T 8.950 25T 36.850 18T
2018-06-02 2018 Colorado Xcel Silver State Kinetic Gymnastics 1 XS Sr B 8.900 4 9.075 11 8.725 5 9.250 1T 35.950 2
2018-05-04 Xtreme Altitude Xcel Xtravaganza Kinetic Gymnastics 5 XS Senior 8.000 20 8.000 20 9.000 16T 8.500 20 33.500 20
2018-04-27 April Showers Xcel Meet Kinetic Gymnastics 2 XS Senior 0.000 12 8.700 12 8.850 8 0.000 12 17.550 12
2018-03-17 Mildred C. Burnham Invitational Kinetic Gymnastics 3 XS Sr B 8.300 66T 8.600 64T 8.800 34T 8.400 53T 34.100 57
2018-03-01 Epic Invitational 2018 Kinetic Gymnastics 1 XS Jr B 8.100 13 9.300 5 8.800 9T 7.900 14 34.100 13